sensor_id;sensor_type;location;lat;lon;timestamp;P1;durP1;ratioP1;P2;durP2;ratioP2
37383;SDS011;23258;49.718;11.082;2022-10-01T00:01:59;5.30;;;4.43;;
37383;SDS011;23258;49.718;11.082;2022-10-01T00:04:27;4.82;;;4.43;;
37383;SDS011;23258;49.718;11.082;2022-10-01T00:06:55;4.68;;;4.22;;
37383;SDS011;23258;49.718;11.082;2022-10-01T00:09:29;6.65;;;4.82;;
37383;SDS011;23258;49.718;11.082;2022-10-01T00:11:57;5.27;;;4.80;;
37383;SDS011;23258;49.718;11.082;2022-10-01T00:14:26;5.22;;;4.68;;
37383;SDS011;23258;49.718;11.082;2022-10-01T00:16:56;4.15;;;3.78;;
37383;SDS011;23258;49.718;11.082;2022-10-01T00:19:25;4.90;;;4.47;;
37383;SDS011;23258;49.718;11.082;2022-10-01T00:21:53;4.60;;;4.20;;
37383;SDS011;23258;49.718;11.082;2022-10-01T00:24:21;5.72;;;5.00;;
37383;SDS011;23258;49.718;11.082;2022-10-01T00:26:50;5.18;;;4.15;;
37383;SDS011;23258;49.718;11.082;2022-10-01T00:29:18;3.60;;;3.30;;
37383;SDS011;23258;49.718;11.082;2022-10-01T00:31:46;3.95;;;3.55;;
37383;SDS011;23258;49.718;11.082;2022-10-01T00:34:17;4.80;;;4.28;;
37383;SDS011;23258;49.718;11.082;2022-10-01T00:36:45;4.53;;;3.85;;
37383;SDS011;23258;49.718;11.082;2022-10-01T00:39:14;4.53;;;3.92;;
37383;SDS011;23258;49.718;11.082;2022-10-01T00:41:42;5.25;;;4.10;;
37383;SDS011;23258;49.718;11.082;2022-10-01T00:46:57;7.70;;;5.07;;
37383;SDS011;23258;49.718;11.082;2022-10-01T00:49:30;7.13;;;5.75;;
37383;SDS011;23258;49.718;11.082;2022-10-01T00:52:01;4.75;;;4.30;;
37383;SDS011;23258;49.718;11.082;2022-10-01T00:54:30;5.00;;;4.05;;
37383;SDS011;23258;49.718;11.082;2022-10-01T00:56:59;4.20;;;3.80;;
37383;SDS011;23258;49.718;11.082;2022-10-01T00:59:29;4.63;;;4.13;;
37383;SDS011;23258;49.718;11.082;2022-10-01T01:01:58;6.45;;;4.75;;
37383;SDS011;23258;49.718;11.082;2022-10-01T01:04:26;5.88;;;4.90;;
37383;SDS011;23258;49.718;11.082;2022-10-01T01:06:58;5.57;;;5.03;;
37383;SDS011;23258;49.718;11.082;2022-10-01T01:09:28;4.82;;;4.43;;
37383;SDS011;23258;49.718;11.082;2022-10-01T01:11:57;6.75;;;5.68;;
37383;SDS011;23258;49.718;11.082;2022-10-01T01:14:30;8.20;;;6.00;;
37383;SDS011;23258;49.718;11.082;2022-10-01T01:17:00;9.48;;;5.15;;
37383;SDS011;23258;49.718;11.082;2022-10-01T01:19:35;7.72;;;5.65;;
37383;SDS011;23258;49.718;11.082;2022-10-01T01:22:11;6.10;;;5.32;;
37383;SDS011;23258;49.718;11.082;2022-10-01T01:24:49;7.63;;;6.30;;
37383;SDS011;23258;49.718;11.082;2022-10-01T01:27:27;6.43;;;5.47;;
37383;SDS011;23258;49.718;11.082;2022-10-01T01:30:00;10.05;;;7.28;;
37383;SDS011;23258;49.718;11.082;2022-10-01T01:32:30;6.72;;;6.03;;
37383;SDS011;23258;49.718;11.082;2022-10-01T01:34:59;7.32;;;5.75;;
37383;SDS011;23258;49.718;11.082;2022-10-01T01:37:31;5.75;;;5.13;;
37383;SDS011;23258;49.718;11.082;2022-10-01T01:40:01;6.78;;;5.30;;
37383;SDS011;23258;49.718;11.082;2022-10-01T01:42:31;5.28;;;4.80;;
37383;SDS011;23258;49.718;11.082;2022-10-01T01:45:04;8.57;;;5.22;;
37383;SDS011;23258;49.718;11.082;2022-10-01T01:47:34;3.97;;;3.60;;
37383;SDS011;23258;49.718;11.082;2022-10-01T01:50:04;5.10;;;4.68;;
37383;SDS011;23258;49.718;11.082;2022-10-01T01:52:34;5.90;;;4.07;;
37383;SDS011;23258;49.718;11.082;2022-10-01T01:55:02;5.75;;;4.95;;
37383;SDS011;23258;49.718;11.082;2022-10-01T01:57:31;6.10;;;5.22;;
37383;SDS011;23258;49.718;11.082;2022-10-01T02:00:00;5.65;;;5.15;;
37383;SDS011;23258;49.718;11.082;2022-10-01T02:02:34;6.38;;;4.93;;
37383;SDS011;23258;49.718;11.082;2022-10-01T02:05:05;6.85;;;6.22;;
37383;SDS011;23258;49.718;11.082;2022-10-01T02:10:21;7.28;;;6.38;;
37383;SDS011;23258;49.718;11.082;2022-10-01T02:12:56;6.82;;;6.13;;
37383;SDS011;23258;49.718;11.082;2022-10-01T02:15:31;8.80;;;6.55;;
37383;SDS011;23258;49.718;11.082;2022-10-01T02:18:07;8.98;;;7.32;;
37383;SDS011;23258;49.718;11.082;2022-10-01T02:20:37;8.65;;;6.90;;
37383;SDS011;23258;49.718;11.082;2022-10-01T02:23:07;8.10;;;6.82;;
37383;SDS011;23258;49.718;11.082;2022-10-01T02:25:36;7.32;;;6.65;;
37383;SDS011;23258;49.718;11.082;2022-10-01T02:28:07;7.63;;;6.72;;
37383;SDS011;23258;49.718;11.082;2022-10-01T02:30:37;5.97;;;5.38;;
37383;SDS011;23258;49.718;11.082;2022-10-01T02:33:08;7.32;;;6.50;;
37383;SDS011;23258;49.718;11.082;2022-10-01T02:35:38;6.32;;;5.70;;
37383;SDS011;23258;49.718;11.082;2022-10-01T02:38:07;6.88;;;6.18;;
37383;SDS011;23258;49.718;11.082;2022-10-01T02:40:36;5.57;;;5.07;;
37383;SDS011;23258;49.718;11.082;2022-10-01T02:43:07;6.20;;;5.68;;
37383;SDS011;23258;49.718;11.082;2022-10-01T02:45:38;7.22;;;6.53;;
37383;SDS011;23258;49.718;11.082;2022-10-01T02:48:11;6.55;;;5.82;;
37383;SDS011;23258;49.718;11.082;2022-10-01T02:50:43;8.43;;;7.55;;
37383;SDS011;23258;49.718;11.082;2022-10-01T02:53:15;7.30;;;6.47;;
37383;SDS011;23258;49.718;11.082;2022-10-01T02:55:45;12.73;;;7.82;;
37383;SDS011;23258;49.718;11.082;2022-10-01T02:58:14;10.32;;;6.10;;
37383;SDS011;23258;49.718;11.082;2022-10-01T03:00:42;6.95;;;6.25;;
37383;SDS011;23258;49.718;11.082;2022-10-01T03:03:13;7.32;;;6.53;;
37383;SDS011;23258;49.718;11.082;2022-10-01T03:05:41;6.15;;;5.65;;
37383;SDS011;23258;49.718;11.082;2022-10-01T03:08:09;7.93;;;6.20;;
37383;SDS011;23258;49.718;11.082;2022-10-01T03:10:37;8.02;;;6.97;;
37383;SDS011;23258;49.718;11.082;2022-10-01T03:13:06;7.72;;;6.60;;
37383;SDS011;23258;49.718;11.082;2022-10-01T03:15:34;12.88;;;7.53;;
37383;SDS011;23258;49.718;11.082;2022-10-01T03:18:02;7.15;;;6.47;;
37383;SDS011;23258;49.718;11.082;2022-10-01T03:20:33;10.23;;;7.82;;
37383;SDS011;23258;49.718;11.082;2022-10-01T03:23:01;11.25;;;8.00;;
37383;SDS011;23258;49.718;11.082;2022-10-01T03:25:29;9.00;;;7.53;;
37383;SDS011;23258;49.718;11.082;2022-10-01T03:27:58;9.02;;;7.95;;
37383;SDS011;23258;49.718;11.082;2022-10-01T03:30:26;8.48;;;6.85;;
37383;SDS011;23258;49.718;11.082;2022-10-01T03:32:54;9.30;;;7.47;;
37383;SDS011;23258;49.718;11.082;2022-10-01T03:35:22;10.45;;;7.50;;
37383;SDS011;23258;49.718;11.082;2022-10-01T03:37:53;7.50;;;6.40;;
37383;SDS011;23258;49.718;11.082;2022-10-01T03:40:21;5.07;;;4.57;;
37383;SDS011;23258;49.718;11.082;2022-10-01T03:42:49;5.55;;;5.05;;
37383;SDS011;23258;49.718;11.082;2022-10-01T03:45:18;6.00;;;5.10;;
37383;SDS011;23258;49.718;11.082;2022-10-01T03:47:49;9.23;;;6.55;;
37383;SDS011;23258;49.718;11.082;2022-10-01T03:50:18;6.50;;;5.90;;
37383;SDS011;23258;49.718;11.082;2022-10-01T03:52:47;5.70;;;5.10;;
37383;SDS011;23258;49.718;11.082;2022-10-01T03:55:18;7.07;;;5.95;;
37383;SDS011;23258;49.718;11.082;2022-10-01T03:57:46;8.10;;;6.97;;
37383;SDS011;23258;49.718;11.082;2022-10-01T04:00:14;7.25;;;6.55;;
37383;SDS011;23258;49.718;11.082;2022-10-01T04:02:43;11.52;;;6.47;;
37383;SDS011;23258;49.718;11.082;2022-10-01T04:05:11;8.55;;;6.95;;
37383;SDS011;23258;49.718;11.082;2022-10-01T04:07:39;10.27;;;7.22;;
37383;SDS011;23258;49.718;11.082;2022-10-01T04:10:08;8.18;;;7.13;;
37383;SDS011;23258;49.718;11.082;2022-10-01T04:12:39;8.52;;;6.95;;
37383;SDS011;23258;49.718;11.082;2022-10-01T04:15:08;8.27;;;7.05;;
37383;SDS011;23258;49.718;11.082;2022-10-01T04:17:37;8.13;;;7.03;;
37383;SDS011;23258;49.718;11.082;2022-10-01T04:20:05;9.50;;;7.50;;
37383;SDS011;23258;49.718;11.082;2022-10-01T04:22:35;7.25;;;6.55;;
37383;SDS011;23258;49.718;11.082;2022-10-01T04:25:03;9.10;;;7.82;;
37383;SDS011;23258;49.718;11.082;2022-10-01T04:27:32;8.63;;;6.60;;
37383;SDS011;23258;49.718;11.082;2022-10-01T04:30:03;8.13;;;6.13;;
37383;SDS011;23258;49.718;11.082;2022-10-01T04:32:32;9.05;;;6.63;;
37383;SDS011;23258;49.718;11.082;2022-10-01T04:35:00;7.93;;;6.53;;
37383;SDS011;23258;49.718;11.082;2022-10-01T04:37:29;7.55;;;6.65;;
37383;SDS011;23258;49.718;11.082;2022-10-01T04:39:57;9.80;;;7.15;;
37383;SDS011;23258;49.718;11.082;2022-10-01T04:42:26;7.97;;;7.18;;
37383;SDS011;23258;49.718;11.082;2022-10-01T04:44:54;7.85;;;7.05;;
37383;SDS011;23258;49.718;11.082;2022-10-01T04:47:25;7.00;;;6.30;;
37383;SDS011;23258;49.718;11.082;2022-10-01T04:49:53;7.63;;;6.90;;
37383;SDS011;23258;49.718;11.082;2022-10-01T04:52:21;8.55;;;7.22;;
37383;SDS011;23258;49.718;11.082;2022-10-01T04:54:49;7.28;;;6.43;;
37383;SDS011;23258;49.718;11.082;2022-10-01T04:57:18;8.88;;;6.72;;
37383;SDS011;23258;49.718;11.082;2022-10-01T04:59:46;7.25;;;6.28;;
37383;SDS011;23258;49.718;11.082;2022-10-01T05:02:15;8.52;;;6.65;;
37383;SDS011;23258;49.718;11.082;2022-10-01T05:04:46;12.27;;;6.82;;
37383;SDS011;23258;49.718;11.082;2022-10-01T05:07:14;8.18;;;7.05;;
37383;SDS011;23258;49.718;11.082;2022-10-01T05:09:43;10.35;;;6.53;;
37383;SDS011;23258;49.718;11.082;2022-10-01T05:12:11;7.93;;;7.18;;
37383;SDS011;23258;49.718;11.082;2022-10-01T05:14:40;9.13;;;7.10;;
37383;SDS011;23258;49.718;11.082;2022-10-01T05:17:08;9.15;;;7.05;;
37383;SDS011;23258;49.718;11.082;2022-10-01T05:19:36;8.25;;;6.30;;
37383;SDS011;23258;49.718;11.082;2022-10-01T05:22:07;6.90;;;6.20;;
37383;SDS011;23258;49.718;11.082;2022-10-01T05:24:35;9.85;;;7.35;;
37383;SDS011;23258;49.718;11.082;2022-10-01T05:27:04;7.57;;;6.03;;
37383;SDS011;23258;49.718;11.082;2022-10-01T05:29:37;9.18;;;7.15;;
37383;SDS011;23258;49.718;11.082;2022-10-01T05:32:05;8.13;;;6.57;;
37383;SDS011;23258;49.718;11.082;2022-10-01T05:34:34;8.18;;;7.38;;
37383;SDS011;23258;49.718;11.082;2022-10-01T05:37:02;10.80;;;7.95;;
37383;SDS011;23258;49.718;11.082;2022-10-01T05:39:33;8.38;;;7.28;;
37383;SDS011;23258;49.718;11.082;2022-10-01T05:42:02;9.00;;;7.45;;
37383;SDS011;23258;49.718;11.082;2022-10-01T05:44:30;8.65;;;7.38;;
37383;SDS011;23258;49.718;11.082;2022-10-01T05:47:02;9.02;;;7.22;;
37383;SDS011;23258;49.718;11.082;2022-10-01T05:49:30;7.82;;;6.53;;
37383;SDS011;23258;49.718;11.082;2022-10-01T05:51:59;7.85;;;7.05;;
37383;SDS011;23258;49.718;11.082;2022-10-01T05:54:27;9.07;;;6.88;;
37383;SDS011;23258;49.718;11.082;2022-10-01T05:56:58;10.45;;;7.38;;
37383;SDS011;23258;49.718;11.082;2022-10-01T05:59:27;7.72;;;6.75;;
37383;SDS011;23258;49.718;11.082;2022-10-01T06:01:55;9.43;;;7.53;;
37383;SDS011;23258;49.718;11.082;2022-10-01T06:04:23;9.20;;;8.13;;
37383;SDS011;23258;49.718;11.082;2022-10-01T06:06:52;8.05;;;6.97;;
37383;SDS011;23258;49.718;11.082;2022-10-01T06:09:20;9.18;;;6.90;;
37383;SDS011;23258;49.718;11.082;2022-10-01T06:11:48;10.00;;;7.80;;
37383;SDS011;23258;49.718;11.082;2022-10-01T06:14:19;8.13;;;7.32;;
37383;SDS011;23258;49.718;11.082;2022-10-01T06:16:51;10.10;;;7.93;;
37383;SDS011;23258;49.718;11.082;2022-10-01T06:19:19;8.70;;;7.05;;
37383;SDS011;23258;49.718;11.082;2022-10-01T06:21:47;9.60;;;7.22;;
37383;SDS011;23258;49.718;11.082;2022-10-01T06:24:15;7.30;;;6.53;;
37383;SDS011;23258;49.718;11.082;2022-10-01T06:26:44;8.48;;;6.88;;
37383;SDS011;23258;49.718;11.082;2022-10-01T06:29:12;9.05;;;7.28;;
37383;SDS011;23258;49.718;11.082;2022-10-01T06:31:43;7.03;;;5.97;;
37383;SDS011;23258;49.718;11.082;2022-10-01T06:34:11;7.53;;;6.82;;
37383;SDS011;23258;49.718;11.082;2022-10-01T06:36:40;8.18;;;6.72;;
37383;SDS011;23258;49.718;11.082;2022-10-01T06:39:08;7.93;;;7.00;;
37383;SDS011;23258;49.718;11.082;2022-10-01T06:41:36;7.78;;;6.65;;
37383;SDS011;23258;49.718;11.082;2022-10-01T06:44:08;7.93;;;6.43;;
37383;SDS011;23258;49.718;11.082;2022-10-01T06:46:36;9.10;;;6.47;;
37383;SDS011;23258;49.718;11.082;2022-10-01T06:49:07;8.25;;;7.43;;
37383;SDS011;23258;49.718;11.082;2022-10-01T06:51:35;8.73;;;6.45;;
37383;SDS011;23258;49.718;11.082;2022-10-01T06:54:16;7.97;;;6.07;;
37383;SDS011;23258;49.718;11.082;2022-10-01T06:56:44;9.02;;;5.97;;
37383;SDS011;23258;49.718;11.082;2022-10-01T06:59:13;7.20;;;6.45;;
37383;SDS011;23258;49.718;11.082;2022-10-01T07:01:41;8.38;;;6.90;;
37383;SDS011;23258;49.718;11.082;2022-10-01T07:04:12;7.63;;;6.60;;
37383;SDS011;23258;49.718;11.082;2022-10-01T07:06:40;7.40;;;6.38;;
37383;SDS011;23258;49.718;11.082;2022-10-01T07:09:08;9.05;;;7.15;;
37383;SDS011;23258;49.718;11.082;2022-10-01T07:11:36;7.70;;;6.15;;
37383;SDS011;23258;49.718;11.082;2022-10-01T07:14:05;8.02;;;6.30;;
37383;SDS011;23258;49.718;11.082;2022-10-01T07:16:33;7.47;;;6.35;;
37383;SDS011;23258;49.718;11.082;2022-10-01T07:19:04;6.15;;;5.18;;
37383;SDS011;23258;49.718;11.082;2022-10-01T07:21:35;8.30;;;5.80;;
37383;SDS011;23258;49.718;11.082;2022-10-01T07:24:03;8.48;;;6.03;;
37383;SDS011;23258;49.718;11.082;2022-10-01T07:26:31;8.57;;;5.60;;
37383;SDS011;23258;49.718;11.082;2022-10-01T07:28:59;6.13;;;5.03;;
37383;SDS011;23258;49.718;11.082;2022-10-01T07:31:28;6.28;;;5.15;;
37383;SDS011;23258;49.718;11.082;2022-10-01T07:33:57;7.00;;;5.97;;
37383;SDS011;23258;49.718;11.082;2022-10-01T07:36:25;6.18;;;5.22;;
37383;SDS011;23258;49.718;11.082;2022-10-01T07:38:56;6.35;;;5.72;;
37383;SDS011;23258;49.718;11.082;2022-10-01T07:41:25;6.30;;;5.75;;
37383;SDS011;23258;49.718;11.082;2022-10-01T07:43:54;6.13;;;5.53;;
37383;SDS011;23258;49.718;11.082;2022-10-01T07:46:22;5.47;;;4.97;;
37383;SDS011;23258;49.718;11.082;2022-10-01T07:48:50;5.38;;;4.68;;
37383;SDS011;23258;49.718;11.082;2022-10-01T07:51:18;8.55;;;5.03;;
37383;SDS011;23258;49.718;11.082;2022-10-01T07:53:48;6.13;;;5.40;;
37383;SDS011;23258;49.718;11.082;2022-10-01T07:56:19;6.45;;;5.28;;
37383;SDS011;23258;49.718;11.082;2022-10-01T07:58:47;8.32;;;6.03;;
37383;SDS011;23258;49.718;11.082;2022-10-01T08:01:15;5.38;;;4.88;;
37383;SDS011;23258;49.718;11.082;2022-10-01T08:03:46;5.80;;;5.15;;
37383;SDS011;23258;49.718;11.082;2022-10-01T08:06:14;5.70;;;4.57;;
37383;SDS011;23258;49.718;11.082;2022-10-01T08:08:42;9.00;;;5.28;;
37383;SDS011;23258;49.718;11.082;2022-10-01T08:11:11;6.68;;;5.68;;
37383;SDS011;23258;49.718;11.082;2022-10-01T08:13:44;6.07;;;4.85;;
37383;SDS011;23258;49.718;11.082;2022-10-01T08:16:13;5.53;;;4.85;;
37383;SDS011;23258;49.718;11.082;2022-10-01T08:18:41;6.25;;;5.50;;
37383;SDS011;23258;49.718;11.082;2022-10-01T08:21:09;6.75;;;5.90;;
37383;SDS011;23258;49.718;11.082;2022-10-01T08:23:38;5.38;;;4.95;;
37383;SDS011;23258;49.718;11.082;2022-10-01T08:26:06;6.15;;;5.55;;
37383;SDS011;23258;49.718;11.082;2022-10-01T08:28:35;7.00;;;5.60;;
37383;SDS011;23258;49.718;11.082;2022-10-01T08:31:07;6.28;;;5.13;;
37383;SDS011;23258;49.718;11.082;2022-10-01T08:33:36;5.32;;;4.75;;
37383;SDS011;23258;49.718;11.082;2022-10-01T08:36:05;5.47;;;4.82;;
37383;SDS011;23258;49.718;11.082;2022-10-01T08:38:35;7.80;;;4.88;;
37383;SDS011;23258;49.718;11.082;2022-10-01T08:41:06;8.55;;;5.45;;
37383;SDS011;23258;49.718;11.082;2022-10-01T08:43:39;5.13;;;4.63;;
37383;SDS011;23258;49.718;11.082;2022-10-01T08:46:12;6.40;;;5.75;;
37383;SDS011;23258;49.718;11.082;2022-10-01T08:48:48;8.40;;;5.53;;
37383;SDS011;23258;49.718;11.082;2022-10-01T08:51:21;10.93;;;5.40;;
37383;SDS011;23258;49.718;11.082;2022-10-01T08:53:51;5.07;;;4.60;;
37383;SDS011;23258;49.718;11.082;2022-10-01T08:56:23;5.00;;;4.50;;
37383;SDS011;23258;49.718;11.082;2022-10-01T08:58:54;6.00;;;5.40;;
37383;SDS011;23258;49.718;11.082;2022-10-01T09:01:25;6.75;;;4.78;;
37383;SDS011;23258;49.718;11.082;2022-10-01T09:03:54;6.78;;;5.40;;
37383;SDS011;23258;49.718;11.082;2022-10-01T09:06:23;5.35;;;4.85;;
37383;SDS011;23258;49.718;11.082;2022-10-01T09:08:55;5.55;;;4.93;;
37383;SDS011;23258;49.718;11.082;2022-10-01T09:11:34;5.70;;;4.80;;
37383;SDS011;23258;49.718;11.082;2022-10-01T09:14:08;5.15;;;4.63;;
37383;SDS011;23258;49.718;11.082;2022-10-01T09:16:44;4.55;;;4.15;;
37383;SDS011;23258;49.718;11.082;2022-10-01T09:19:18;6.20;;;4.20;;
37383;SDS011;23258;49.718;11.082;2022-10-01T09:21:52;4.85;;;4.40;;
37383;SDS011;23258;49.718;11.082;2022-10-01T09:24:25;4.18;;;3.88;;
37383;SDS011;23258;49.718;11.082;2022-10-01T09:26:58;4.97;;;4.53;;
37383;SDS011;23258;49.718;11.082;2022-10-01T09:29:28;7.25;;;4.28;;
37383;SDS011;23258;49.718;11.082;2022-10-01T09:32:02;4.88;;;4.47;;
37383;SDS011;23258;49.718;11.082;2022-10-01T09:34:33;4.93;;;4.47;;
37383;SDS011;23258;49.718;11.082;2022-10-01T09:37:03;4.47;;;3.78;;
37383;SDS011;23258;49.718;11.082;2022-10-01T09:39:40;4.35;;;4.05;;
37383;SDS011;23258;49.718;11.082;2022-10-01T09:42:09;4.72;;;4.32;;
37383;SDS011;23258;49.718;11.082;2022-10-01T09:44:37;4.93;;;4.47;;
37383;SDS011;23258;49.718;11.082;2022-10-01T09:47:15;4.75;;;4.22;;
37383;SDS011;23258;49.718;11.082;2022-10-01T09:49:43;5.35;;;4.85;;
37383;SDS011;23258;49.718;11.082;2022-10-01T09:52:13;5.97;;;4.45;;
37383;SDS011;23258;49.718;11.082;2022-10-01T09:54:43;4.90;;;4.45;;
37383;SDS011;23258;49.718;11.082;2022-10-01T09:57:13;5.30;;;4.22;;
37383;SDS011;23258;49.718;11.082;2022-10-01T09:59:42;4.15;;;3.83;;
37383;SDS011;23258;49.718;11.082;2022-10-01T10:02:16;4.22;;;3.92;;
37383;SDS011;23258;49.718;11.082;2022-10-01T10:04:46;5.85;;;4.25;;
37383;SDS011;23258;49.718;11.082;2022-10-01T10:07:15;4.60;;;4.20;;
37383;SDS011;23258;49.718;11.082;2022-10-01T10:09:44;4.93;;;4.53;;
37383;SDS011;23258;49.718;11.082;2022-10-01T10:12:19;5.20;;;4.70;;
37383;SDS011;23258;49.718;11.082;2022-10-01T10:14:52;4.50;;;4.13;;
37383;SDS011;23258;49.718;11.082;2022-10-01T10:17:25;5.43;;;4.93;;
37383;SDS011;23258;49.718;11.082;2022-10-01T10:19:54;5.10;;;4.60;;
37383;SDS011;23258;49.718;11.082;2022-10-01T10:22:23;5.13;;;4.63;;
37383;SDS011;23258;49.718;11.082;2022-10-01T10:24:51;4.80;;;4.15;;
37383;SDS011;23258;49.718;11.082;2022-10-01T10:27:23;5.50;;;4.90;;
37383;SDS011;23258;49.718;11.082;2022-10-01T10:30:00;6.05;;;5.55;;
37383;SDS011;23258;49.718;11.082;2022-10-01T10:32:32;5.28;;;4.78;;
37383;SDS011;23258;49.718;11.082;2022-10-01T10:35:00;6.60;;;4.70;;
37383;SDS011;23258;49.718;11.082;2022-10-01T10:37:30;5.70;;;4.82;;
37383;SDS011;23258;49.718;11.082;2022-10-01T10:40:00;5.72;;;4.85;;
37383;SDS011;23258;49.718;11.082;2022-10-01T10:42:29;4.95;;;4.45;;
37383;SDS011;23258;49.718;11.082;2022-10-01T10:45:00;5.80;;;4.70;;
37383;SDS011;23258;49.718;11.082;2022-10-01T10:47:38;5.43;;;4.93;;
37383;SDS011;23258;49.718;11.082;2022-10-01T10:50:12;5.90;;;4.40;;
37383;SDS011;23258;49.718;11.082;2022-10-01T10:52:45;6.03;;;4.32;;
37383;SDS011;23258;49.718;11.082;2022-10-01T10:55:19;4.93;;;4.07;;
37383;SDS011;23258;49.718;11.082;2022-10-01T10:57:48;7.38;;;4.30;;
37383;SDS011;23258;49.718;11.082;2022-10-01T11:00:18;5.47;;;4.63;;
37383;SDS011;23258;49.718;11.082;2022-10-01T11:02:51;4.47;;;4.07;;
37383;SDS011;23258;49.718;11.082;2022-10-01T11:05:21;4.80;;;4.40;;
37383;SDS011;23258;49.718;11.082;2022-10-01T11:07:52;5.22;;;4.35;;
37383;SDS011;23258;49.718;11.082;2022-10-01T11:10:29;4.45;;;3.75;;
37383;SDS011;23258;49.718;11.082;2022-10-01T11:13:20;3.83;;;3.47;;
37383;SDS011;23258;49.718;11.082;2022-10-01T11:16:00;3.88;;;3.58;;
37383;SDS011;23258;49.718;11.082;2022-10-01T11:18:37;3.80;;;3.50;;
37383;SDS011;23258;49.718;11.082;2022-10-01T11:23:58;4.10;;;3.60;;
37383;SDS011;23258;49.718;11.082;2022-10-01T11:26:32;3.85;;;3.40;;
37383;SDS011;23258;49.718;11.082;2022-10-01T11:29:07;3.90;;;3.40;;
37383;SDS011;23258;49.718;11.082;2022-10-01T11:31:41;3.75;;;3.45;;
37383;SDS011;23258;49.718;11.082;2022-10-01T11:34:22;3.88;;;3.53;;
37383;SDS011;23258;49.718;11.082;2022-10-01T11:36:56;3.47;;;3.28;;
37383;SDS011;23258;49.718;11.082;2022-10-01T11:39:28;4.32;;;3.47;;
37383;SDS011;23258;49.718;11.082;2022-10-01T11:42:00;3.63;;;3.22;;
37383;SDS011;23258;49.718;11.082;2022-10-01T11:44:30;3.35;;;3.13;;
37383;SDS011;23258;49.718;11.082;2022-10-01T11:46:59;2.80;;;2.60;;
37383;SDS011;23258;49.718;11.082;2022-10-01T11:49:38;3.05;;;2.85;;
37383;SDS011;23258;49.718;11.082;2022-10-01T11:52:11;2.70;;;2.50;;
37383;SDS011;23258;49.718;11.082;2022-10-01T11:54:42;3.13;;;2.47;;
37383;SDS011;23258;49.718;11.082;2022-10-01T11:57:13;2.60;;;2.40;;
37383;SDS011;23258;49.718;11.082;2022-10-01T11:59:55;2.50;;;2.30;;
37383;SDS011;23258;49.718;11.082;2022-10-01T12:02:29;2.22;;;2.10;;
37383;SDS011;23258;49.718;11.082;2022-10-01T12:05:02;2.75;;;2.55;;
37383;SDS011;23258;49.718;11.082;2022-10-01T12:07:33;2.40;;;2.20;;
37383;SDS011;23258;49.718;11.082;2022-10-01T12:10:08;2.35;;;2.20;;
37383;SDS011;23258;49.718;11.082;2022-10-01T12:12:42;2.20;;;2.10;;
37383;SDS011;23258;49.718;11.082;2022-10-01T12:15:14;2.13;;;2.03;;
37383;SDS011;23258;49.718;11.082;2022-10-01T12:17:45;1.88;;;1.77;;
37383;SDS011;23258;49.718;11.082;2022-10-01T12:20:21;1.95;;;1.85;;
37383;SDS011;23258;49.718;11.082;2022-10-01T12:22:50;2.15;;;2.05;;
37383;SDS011;23258;49.718;11.082;2022-10-01T12:25:21;2.50;;;2.30;;
37383;SDS011;23258;49.718;11.082;2022-10-01T12:27:55;3.05;;;1.83;;
37383;SDS011;23258;49.718;11.082;2022-10-01T12:30:27;2.20;;;2.10;;
37383;SDS011;23258;49.718;11.082;2022-10-01T12:32:59;2.08;;;1.88;;
37383;SDS011;23258;49.718;11.082;2022-10-01T12:38:30;2.72;;;2.63;;
37383;SDS011;23258;49.718;11.082;2022-10-01T12:41:03;1.40;;;1.30;;
37383;SDS011;23258;49.718;11.082;2022-10-01T12:43:44;3.35;;;2.03;;
37383;SDS011;23258;49.718;11.082;2022-10-01T12:46:20;2.92;;;1.80;;
37383;SDS011;23258;49.718;11.082;2022-10-01T12:48:52;2.42;;;2.28;;
37383;SDS011;23258;49.718;11.082;2022-10-01T12:51:34;1.80;;;1.70;;
37383;SDS011;23258;49.718;11.082;2022-10-01T12:54:08;2.63;;;1.88;;
37383;SDS011;23258;49.718;11.082;2022-10-01T12:56:42;2.45;;;2.25;;
37383;SDS011;23258;49.718;11.082;2022-10-01T12:59:22;1.85;;;1.75;;
37383;SDS011;23258;49.718;11.082;2022-10-01T13:01:58;2.72;;;1.98;;
37383;SDS011;23258;49.718;11.082;2022-10-01T13:07:25;1.88;;;1.77;;
37383;SDS011;23258;49.718;11.082;2022-10-01T13:10:01;2.15;;;1.98;;
37383;SDS011;23258;49.718;11.082;2022-10-01T13:12:41;2.22;;;1.80;;
37383;SDS011;23258;49.718;11.082;2022-10-01T13:15:12;1.17;;;1.17;;
37383;SDS011;23258;49.718;11.082;2022-10-01T13:17:43;1.23;;;1.23;;
37383;SDS011;23258;49.718;11.082;2022-10-01T13:20:15;1.70;;;1.60;;
37383;SDS011;23258;49.718;11.082;2022-10-01T13:22:47;1.10;;;1.10;;
37383;SDS011;23258;49.718;11.082;2022-10-01T13:25:23;1.00;;;1.00;;
37383;SDS011;23258;49.718;11.082;2022-10-01T13:27:55;1.75;;;1.65;;
37383;SDS011;23258;49.718;11.082;2022-10-01T13:30:26;1.70;;;1.40;;
37383;SDS011;23258;49.718;11.082;2022-10-01T13:32:59;1.30;;;1.30;;
37383;SDS011;23258;49.718;11.082;2022-10-01T13:35:30;1.15;;;1.15;;
37383;SDS011;23258;49.718;11.082;2022-10-01T13:37:58;0.95;;;0.95;;
37383;SDS011;23258;49.718;11.082;2022-10-01T13:40:30;1.73;;;1.30;;
37383;SDS011;23258;49.718;11.082;2022-10-01T13:42:59;1.20;;;1.20;;
37383;SDS011;23258;49.718;11.082;2022-10-01T13:45:30;1.23;;;1.20;;
37383;SDS011;23258;49.718;11.082;2022-10-01T13:48:12;1.95;;;1.83;;
37383;SDS011;23258;49.718;11.082;2022-10-01T13:50:51;1.13;;;1.10;;
37383;SDS011;23258;49.718;11.082;2022-10-01T13:53:21;1.48;;;1.45;;
37383;SDS011;23258;49.718;11.082;2022-10-01T13:55:53;1.17;;;1.17;;
37383;SDS011;23258;49.718;11.082;2022-10-01T13:58:23;0.93;;;0.93;;
37383;SDS011;23258;49.718;11.082;2022-10-01T14:00:59;1.02;;;1.02;;
37383;SDS011;23258;49.718;11.082;2022-10-01T14:06:17;1.23;;;1.13;;
37383;SDS011;23258;49.718;11.082;2022-10-01T14:08:46;0.85;;;0.85;;
37383;SDS011;23258;49.718;11.082;2022-10-01T14:11:20;3.53;;;0.85;;
37383;SDS011;23258;49.718;11.082;2022-10-01T14:14:03;1.50;;;1.40;;
37383;SDS011;23258;49.718;11.082;2022-10-01T14:16:48;1.33;;;1.27;;
37383;SDS011;23258;49.718;11.082;2022-10-01T14:19:17;1.02;;;1.02;;
37383;SDS011;23258;49.718;11.082;2022-10-01T14:21:48;1.20;;;1.10;;
37383;SDS011;23258;49.718;11.082;2022-10-01T14:24:23;0.70;;;0.70;;
37383;SDS011;23258;49.718;11.082;2022-10-01T14:26:58;1.05;;;1.05;;
37383;SDS011;23258;49.718;11.082;2022-10-01T14:29:35;1.42;;;1.33;;
37383;SDS011;23258;49.718;11.082;2022-10-01T14:32:12;0.65;;;0.65;;
37383;SDS011;23258;49.718;11.082;2022-10-01T14:34:44;1.40;;;1.30;;
37383;SDS011;23258;49.718;11.082;2022-10-01T14:37:15;1.58;;;1.48;;
37383;SDS011;23258;49.718;11.082;2022-10-01T14:39:44;1.20;;;1.10;;
37383;SDS011;23258;49.718;11.082;2022-10-01T14:42:16;2.03;;;1.25;;
37383;SDS011;23258;49.718;11.082;2022-10-01T14:44:45;1.40;;;1.30;;
37383;SDS011;23258;49.718;11.082;2022-10-01T14:47:16;1.02;;;1.02;;
37383;SDS011;23258;49.718;11.082;2022-10-01T14:49:45;0.95;;;0.95;;
37383;SDS011;23258;49.718;11.082;2022-10-01T14:52:18;0.77;;;0.77;;
37383;SDS011;23258;49.718;11.082;2022-10-01T14:54:47;1.02;;;1.02;;
37383;SDS011;23258;49.718;11.082;2022-10-01T14:57:21;1.63;;;1.52;;
37383;SDS011;23258;49.718;11.082;2022-10-01T14:59:54;0.95;;;0.95;;
37383;SDS011;23258;49.718;11.082;2022-10-01T15:02:23;1.30;;;1.13;;
37383;SDS011;23258;49.718;11.082;2022-10-01T15:04:53;0.98;;;0.95;;
37383;SDS011;23258;49.718;11.082;2022-10-01T15:07:22;1.73;;;1.42;;
37383;SDS011;23258;49.718;11.082;2022-10-01T15:09:51;2.55;;;1.20;;
37383;SDS011;23258;49.718;11.082;2022-10-01T15:12:22;1.08;;;1.02;;